Time;durP1;ratioP1;P1;durP2;ratioP2;P2;SDS_P1;SDS_P2;PMS_P1;PMS_P2;Temp;Humidity;BMP_temperature;BMP_pressure;BME280_temperature;BME280_humidity;BME280_pressure;Samples;Min_cycle;Max_cycle;Signal;HPM_P1;HPM_P2
2024/01/03 00:02:24;;;;;;;30.77;4.73;;;;;;;;;;5115200;28;20224;-78
2024/01/03 00:04:51;;;;;;;31.77;5.20;;;;;;;;;;5114759;28;20194;-78
2024/01/03 00:07:18;;;;;;;29.07;4.53;;;;;;;;;;5115111;28;20280;-77
2024/01/03 00:09:45;;;;;;;31.67;4.63;;;;;;;;;;5114600;28;20312;-77
2024/01/03 00:12:17;;;;;;;24.37;3.57;;;;;;;;;;5114650;28;20674;-76
2024/01/03 00:14:45;;;;;;;29.20;4.00;;;;;;;;;;5115032;28;20228;-78
2024/01/03 00:17:13;;;;;;;20.30;4.00;;;;;;;;;;5114757;28;20218;-77
2024/01/03 00:19:40;;;;;;;21.87;4.33;;;;;;;;;;5114219;28;20230;-77
2024/01/03 00:22:10;;;;;;;20.63;3.70;;;;;;;;;;5115266;28;20297;-77
2024/01/03 00:24:43;;;;;;;22.33;3.50;;;;;;;;;;5114638;28;20205;-77
2024/01/03 00:27:10;;;;;;;26.57;4.53;;;;;;;;;;5114331;28;20733;-78
2024/01/03 00:29:48;;;;;;;23.90;4.03;;;;;;;;;;5114576;28;20253;-77
2024/01/03 00:32:16;;;;;;;23.93;4.13;;;;;;;;;;5113987;28;20552;-78
2024/01/03 00:34:43;;;;;;;26.63;4.37;;;;;;;;;;5114047;28;20280;-78
2024/01/03 00:37:19;;;;;;;23.83;4.77;;;;;;;;;;5114559;28;20289;-78
2024/01/03 00:39:46;;;;;;;24.60;4.30;;;;;;;;;;5114547;28;20197;-77
2024/01/03 00:42:13;;;;;;;25.97;4.47;;;;;;;;;;5114370;28;20243;-77
2024/01/03 00:44:40;;;;;;;28.57;4.00;;;;;;;;;;5113923;28;20277;-78
2024/01/03 00:47:08;;;;;;;28.50;4.57;;;;;;;;;;5114225;28;20645;-77
2024/01/03 00:49:37;;;;;;;27.20;4.80;;;;;;;;;;5113044;28;20623;-78
2024/01/03 00:52:04;;;;;;;29.77;5.27;;;;;;;;;;5114220;28;20654;-77
2024/01/03 00:54:32;;;;;;;27.07;4.10;;;;;;;;;;5114181;28;20630;-77
2024/01/03 00:56:59;;;;;;;34.80;5.60;;;;;;;;;;5114141;28;20193;-77
2024/01/03 00:59:27;;;;;;;29.07;4.30;;;;;;;;;;5113865;28;20230;-77
2024/01/03 01:01:54;;;;;;;37.13;5.67;;;;;;;;;;5113902;28;20193;-77
2024/01/03 01:04:22;;;;;;;26.03;4.63;;;;;;;;;;5113368;28;20201;-75
2024/01/03 01:06:50;;;;;;;33.73;4.93;;;;;;;;;;5114113;28;20225;-78
2024/01/03 01:09:18;;;;;;;33.93;5.00;;;;;;;;;;5113719;28;20230;-77
2024/01/03 01:11:45;;;;;;;31.07;4.50;;;;;;;;;;5113693;28;20744;-78
2024/01/03 01:14:12;;;;;;;28.73;4.83;;;;;;;;;;5113573;28;20725;-78
2024/01/03 01:16:39;;;;;;;33.00;5.17;;;;;;;;;;5113123;28;20760;-79
2024/01/03 01:19:07;;;;;;;26.63;4.27;;;;;;;;;;5113647;28;20293;-78
2024/01/03 01:21:34;;;;;;;22.73;3.90;;;;;;;;;;5113641;28;20194;-78
2024/01/03 01:24:03;;;;;;;26.10;4.40;;;;;;;;;;5113068;28;20229;-78
2024/01/03 01:26:30;;;;;;;34.80;5.07;;;;;;;;;;5113397;28;20196;-78
2024/01/03 01:28:57;;;;;;;35.70;4.87;;;;;;;;;;5113454;28;20710;-78
2024/01/03 01:31:24;;;;;;;36.33;5.00;;;;;;;;;;5113889;28;20656;-78
2024/01/03 01:33:52;;;;;;;27.57;4.67;;;;;;;;;;5113323;28;20631;-78
2024/01/03 01:36:19;;;;;;;27.50;4.33;;;;;;;;;;5112784;28;20193;-79
2024/01/03 01:38:47;;;;;;;36.10;5.20;;;;;;;;;;5113308;28;20202;-77
2024/01/03 01:41:15;;;;;;;28.43;4.40;;;;;;;;;;5113143;28;20194;-77
2024/01/03 01:43:42;;;;;;;28.77;4.23;;;;;;;;;;5113101;28;20281;-78
2024/01/03 01:46:11;;;;;;;28.77;4.00;;;;;;;;;;5112637;28;20273;-78
2024/01/03 01:48:38;;;;;;;25.60;3.40;;;;;;;;;;5112635;28;20236;-78
2024/01/03 01:51:05;;;;;;;25.37;4.13;;;;;;;;;;5113258;28;20229;-77
2024/01/03 01:53:33;;;;;;;20.77;3.70;;;;;;;;;;5112886;28;20204;-77
2024/01/03 01:56:00;;;;;;;22.97;3.23;;;;;;;;;;5112510;28;20281;-77
2024/01/03 01:58:29;;;;;;;29.40;3.73;;;;;;;;;;5112943;28;20280;-77
2024/01/03 02:00:57;;;;;;;23.67;3.93;;;;;;;;;;5111183;28;20317;-77
2024/01/03 02:03:24;;;;;;;26.60;4.27;;;;;;;;;;5113114;28;20293;-77
2024/01/03 02:05:52;;;;;;;17.67;3.67;;;;;;;;;;5112155;28;20281;-77
2024/01/03 02:08:19;;;;;;;22.73;3.40;;;;;;;;;;5112941;28;20242;-78
2024/01/03 02:10:47;;;;;;;23.43;3.33;;;;;;;;;;5109488;28;20321;-76
2024/01/03 02:13:14;;;;;;;24.47;4.30;;;;;;;;;;5092189;28;20210;-77
2024/01/03 02:15:42;;;;;;;29.00;4.43;;;;;;;;;;5092078;28;20229;-77
2024/01/03 02:18:10;;;;;;;23.00;3.57;;;;;;;;;;5092313;28;20221;-78
2024/01/03 02:20:38;;;;;;;22.57;4.10;;;;;;;;;;5092192;28;20195;-77
2024/01/03 02:23:06;;;;;;;25.97;3.53;;;;;;;;;;5092185;28;20222;-78
2024/01/03 02:25:34;;;;;;;19.63;3.70;;;;;;;;;;5091906;28;20761;-78
2024/01/03 02:28:01;;;;;;;28.10;3.93;;;;;;;;;;5092114;28;20686;-78
2024/01/03 02:30:28;;;;;;;31.27;4.27;;;;;;;;;;5091153;28;20618;-77
2024/01/03 02:32:55;;;;;;;21.13;4.10;;;;;;;;;;5096859;28;20237;-77
2024/01/03 02:35:22;;;;;;;19.53;4.10;;;;;;;;;;5111837;28;20481;-78
2024/01/03 02:37:49;;;;;;;18.83;2.87;;;;;;;;;;5111770;28;20225;-78
2024/01/03 02:40:18;;;;;;;18.40;3.73;;;;;;;;;;5111987;28;20247;-76
2024/01/03 02:42:45;;;;;;;22.87;4.03;;;;;;;;;;5112061;28;20189;-77
2024/01/03 02:45:12;;;;;;;22.33;3.83;;;;;;;;;;5111600;28;20225;-77
2024/01/03 02:47:39;;;;;;;21.33;3.60;;;;;;;;;;5111299;28;20289;-77
2024/01/03 02:50:07;;;;;;;24.40;4.00;;;;;;;;;;5112092;28;20321;-77
2024/01/03 02:52:35;;;;;;;21.23;4.07;;;;;;;;;;5111598;28;20225;-78
2024/01/03 02:55:02;;;;;;;19.00;3.77;;;;;;;;;;5111901;28;20190;-77
2024/01/03 02:57:31;;;;;;;26.07;3.77;;;;;;;;;;5111637;28;20246;-77
2024/01/03 02:59:58;;;;;;;22.73;3.50;;;;;;;;;;5111198;28;20796;-77
2024/01/03 03:02:25;;;;;;;20.40;3.77;;;;;;;;;;5111598;28;20236;-77
2024/01/03 03:04:52;;;;;;;25.70;3.30;;;;;;;;;;5111955;28;20193;-77
2024/01/03 03:07:20;;;;;;;30.07;4.37;;;;;;;;;;5111709;28;20280;-78
2024/01/03 03:09:47;;;;;;;22.97;3.93;;;;;;;;;;5111921;28;20690;-77
2024/01/03 03:12:14;;;;;;;25.63;3.80;;;;;;;;;;5111530;28;20549;-77
2024/01/03 03:14:42;;;;;;;26.03;4.33;;;;;;;;;;5111687;28;20569;-77
2024/01/03 03:17:10;;;;;;;22.37;4.17;;;;;;;;;;5111650;28;20213;-77
2024/01/03 03:19:37;;;;;;;29.90;3.67;;;;;;;;;;5111753;28;20217;-77
2024/01/03 03:22:04;;;;;;;31.83;4.27;;;;;;;;;;5111200;28;20270;-77
2024/01/03 03:24:32;;;;;;;25.77;4.00;;;;;;;;;;5106294;28;20240;-77
2024/01/03 03:26:59;;;;;;;28.13;4.63;;;;;;;;;;5102492;28;20201;-77
2024/01/03 03:29:26;;;;;;;24.07;4.67;;;;;;;;;;5111139;28;20286;-78
2024/01/03 03:31:54;;;;;;;24.80;4.07;;;;;;;;;;5111399;28;20284;-77
2024/01/03 03:34:22;;;;;;;22.53;3.67;;;;;;;;;;5109999;28;20665;-77
2024/01/03 03:36:49;;;;;;;32.17;3.83;;;;;;;;;;5111367;28;20792;-78
2024/01/03 03:39:16;;;;;;;26.73;4.40;;;;;;;;;;5111166;28;20201;-76
2024/01/03 03:41:43;;;;;;;24.00;4.07;;;;;;;;;;5111282;28;20285;-77
2024/01/03 03:44:11;;;;;;;27.20;4.43;;;;;;;;;;5111080;28;20293;-78
2024/01/03 03:46:38;;;;;;;35.57;5.17;;;;;;;;;;5111191;28;20204;-77
2024/01/03 03:49:06;;;;;;;27.00;4.07;;;;;;;;;;5110665;28;20200;-77
2024/01/03 03:51:34;;;;;;;23.73;4.27;;;;;;;;;;5111564;28;20217;-77
2024/01/03 03:54:01;;;;;;;27.37;4.70;;;;;;;;;;5111238;28;20221;-78
2024/01/03 03:56:29;;;;;;;28.17;3.97;;;;;;;;;;5110641;28;20647;-77
2024/01/03 03:58:57;;;;;;;30.60;4.87;;;;;;;;;;5111036;28;20197;-77
2024/01/03 04:01:24;;;;;;;28.23;4.63;;;;;;;;;;5106216;28;20249;-77
2024/01/03 04:03:51;;;;;;;33.83;4.83;;;;;;;;;;5099479;28;20209;-78
2024/01/03 04:06:20;;;;;;;24.23;3.80;;;;;;;;;;5090782;28;20293;-77
2024/01/03 04:08:48;;;;;;;26.17;4.83;;;;;;;;;;5090922;28;20202;-77
2024/01/03 04:11:16;;;;;;;25.87;4.20;;;;;;;;;;5090697;28;20226;-76
2024/01/03 04:13:43;;;;;;;29.63;4.20;;;;;;;;;;5090538;28;20293;-77
2024/01/03 04:16:10;;;;;;;31.07;4.40;;;;;;;;;;5090419;28;20194;-77
2024/01/03 04:18:37;;;;;;;27.10;4.17;;;;;;;;;;5090771;28;20289;-77
2024/01/03 04:21:07;;;;;;;20.70;4.27;;;;;;;;;;5090095;28;20202;-77
2024/01/03 04:23:36;;;;;;;23.20;4.20;;;;;;;;;;5090954;28;20198;-77
2024/01/03 04:26:03;;;;;;;30.73;4.80;;;;;;;;;;5094043;28;20309;-77
2024/01/03 04:28:30;;;;;;;30.67;4.80;;;;;;;;;;5094003;28;20285;-78
2024/01/03 04:30:58;;;;;;;34.03;5.10;;;;;;;;;;5094147;28;20329;-78
2024/01/03 04:33:25;;;;;;;28.43;5.37;;;;;;;;;;5093632;28;20675;-77
2024/01/03 04:35:52;;;;;;;34.03;5.27;;;;;;;;;;5099961;28;20205;-77
2024/01/03 04:38:19;;;;;;;32.40;4.63;;;;;;;;;;5113513;28;20285;-78
2024/01/03 04:40:47;;;;;;;29.03;4.97;;;;;;;;;;5114024;28;20289;-77
2024/01/03 04:43:15;;;;;;;30.30;4.67;;;;;;;;;;5114197;28;20844;-77
2024/01/03 04:45:42;;;;;;;40.27;5.43;;;;;;;;;;5113824;28;20310;-77
2024/01/03 04:48:09;;;;;;;26.60;4.83;;;;;;;;;;5113935;28;20190;-78
2024/01/03 04:50:36;;;;;;;32.10;4.83;;;;;;;;;;5113659;28;20604;-76
2024/01/03 04:53:04;;;;;;;31.10;5.13;;;;;;;;;;5114110;28;20190;-78
2024/01/03 04:55:31;;;;;;;29.57;4.90;;;;;;;;;;5113896;28;20289;-78
2024/01/03 04:58:00;;;;;;;38.00;5.63;;;;;;;;;;5113835;28;20760;-78
2024/01/03 05:00:28;;;;;;;25.40;4.67;;;;;;;;;;5113751;28;20233;-78
2024/01/03 05:02:55;;;;;;;35.60;5.13;;;;;;;;;;5113941;28;20284;-77
2024/01/03 05:05:23;;;;;;;29.83;4.33;;;;;;;;;;5114126;28;20217;-77
2024/01/03 05:07:50;;;;;;;30.73;4.70;;;;;;;;;;5113656;28;20292;-77
2024/01/03 05:10:17;;;;;;;35.07;4.87;;;;;;;;;;5112647;28;20317;-77
2024/01/03 05:12:44;;;;;;;28.43;4.37;;;;;;;;;;5113480;28;20293;-77
2024/01/03 05:15:13;;;;;;;32.37;4.83;;;;;;;;;;5113378;28;20194;-78
2024/01/03 05:17:41;;;;;;;25.37;3.87;;;;;;;;;;5113892;28;20193;-77
2024/01/03 05:20:09;;;;;;;27.43;4.90;;;;;;;;;;5109626;28;20208;-77
2024/01/03 05:22:36;;;;;;;27.33;4.23;;;;;;;;;;5101442;28;20260;-77
2024/01/03 05:25:05;;;;;;;26.67;4.13;;;;;;;;;;5106996;28;20309;-78
2024/01/03 05:27:33;;;;;;;28.50;5.17;;;;;;;;;;5112650;28;20201;-77
2024/01/03 05:30:00;;;;;;;33.30;5.07;;;;;;;;;;5093182;28;20265;-77
2024/01/03 05:32:28;;;;;;;29.23;4.87;;;;;;;;;;5092560;28;20230;-78
2024/01/03 05:34:55;;;;;;;30.77;4.07;;;;;;;;;;5093257;28;20289;-78
2024/01/03 05:37:23;;;;;;;30.70;4.70;;;;;;;;;;5110892;28;20201;-78
2024/01/03 05:39:50;;;;;;;24.93;5.00;;;;;;;;;;5112558;28;20297;-78
2024/01/03 05:42:17;;;;;;;28.27;4.83;;;;;;;;;;5112968;28;20288;-77
2024/01/03 05:44:44;;;;;;;27.13;4.30;;;;;;;;;;5113186;28;20285;-78
2024/01/03 05:47:11;;;;;;;34.50;5.57;;;;;;;;;;5113049;28;20196;-78
2024/01/03 05:49:40;;;;;;;27.00;4.63;;;;;;;;;;5112887;28;20194;-78
2024/01/03 05:52:07;;;;;;;32.53;4.67;;;;;;;;;;5113272;28;20198;-77
2024/01/03 05:54:34;;;;;;;37.17;4.97;;;;;;;;;;5112552;28;20200;-77
2024/01/03 05:57:02;;;;;;;37.77;5.40;;;;;;;;;;5112802;28;20289;-78
2024/01/03 05:59:29;;;;;;;24.67;4.77;;;;;;;;;;5112975;28;20230;-77
2024/01/03 06:01:57;;;;;;;31.53;5.47;;;;;;;;;;5112337;28;20237;-78
2024/01/03 06:04:24;;;;;;;32.00;5.97;;;;;;;;;;5112881;28;20204;-77
2024/01/03 06:06:52;;;;;;;29.17;5.07;;;;;;;;;;5112617;28;20292;-78
2024/01/03 06:09:19;;;;;;;32.17;5.50;;;;;;;;;;5111795;28;20800;-78
2024/01/03 06:11:47;;;;;;;34.80;5.03;;;;;;;;;;5112682;28;20236;-78
2024/01/03 06:14:14;;;;;;;34.20;5.40;;;;;;;;;;5112404;28;20200;-77
2024/01/03 06:16:41;;;;;;;38.87;5.10;;;;;;;;;;5112708;28;20221;-77
2024/01/03 06:19:08;;;;;;;33.70;5.17;;;;;;;;;;5112372;28;20757;-78
2024/01/03 06:21:35;;;;;;;31.40;5.73;;;;;;;;;;5112252;28;20352;-78
2024/01/03 06:24:04;;;;;;;33.90;5.37;;;;;;;;;;5112402;28;20693;-78
2024/01/03 06:26:32;;;;;;;29.80;5.20;;;;;;;;;;5112224;28;20282;-78
2024/01/03 06:28:59;;;;;;;30.77;4.83;;;;;;;;;;5112372;28;20202;-79
2024/01/03 06:31:27;;;;;;;33.23;5.23;;;;;;;;;;5112147;28;20233;-77
2024/01/03 06:33:54;;;;;;;25.43;4.73;;;;;;;;;;5112119;28;20194;-78
2024/01/03 06:36:21;;;;;;;28.67;4.23;;;;;;;;;;5111607;28;20213;-77
2024/01/03 06:38:50;;;;;;;28.10;4.97;;;;;;;;;;5112064;28;20200;-77
2024/01/03 06:41:18;;;;;;;22.67;4.33;;;;;;;;;;5112250;28;20196;-77
2024/01/03 06:43:46;;;;;;;26.80;5.23;;;;;;;;;;5111956;28;20650;-78
2024/01/03 06:46:13;;;;;;;28.23;5.47;;;;;;;;;;5111739;28;20649;-78
2024/01/03 06:48:40;;;;;;;29.93;4.07;;;;;;;;;;5112141;28;20217;-78
2024/01/03 06:51:07;;;;;;;20.23;4.07;;;;;;;;;;5111688;28;20224;-78
2024/01/03 06:53:34;;;;;;;25.10;4.60;;;;;;;;;;5111757;28;20277;-78
2024/01/03 06:56:02;;;;;;;27.33;4.97;;;;;;;;;;5111697;28;20550;-78
2024/01/03 06:58:30;;;;;;;28.87;5.03;;;;;;;;;;5111964;28;20296;-78
2024/01/03 07:00:57;;;;;;;27.50;5.27;;;;;;;;;;5111677;28;20306;-78
2024/01/03 07:03:24;;;;;;;29.03;4.83;;;;;;;;;;5111631;28;20227;-79
2024/01/03 07:05:52;;;;;;;28.17;4.40;;;;;;;;;;5111789;28;20292;-78
2024/01/03 07:08:19;;;;;;;28.67;4.63;;;;;;;;;;5111836;28;20285;-78
2024/01/03 07:10:46;;;;;;;25.50;5.00;;;;;;;;;;5111900;28;20313;-79
2024/01/03 07:13:13;;;;;;;26.83;4.73;;;;;;;;;;5111570;28;20225;-78
2024/01/03 07:15:42;;;;;;;28.10;4.50;;;;;;;;;;5112108;28;20281;-78
2024/01/03 07:18:09;;;;;;;24.93;4.00;;;;;;;;;;5111993;28;20194;-78
2024/01/03 07:20:36;;;;;;;25.40;4.27;;;;;;;;;;5111077;28;20229;-77
2024/01/03 07:23:03;;;;;;;30.30;4.97;;;;;;;;;;5111521;28;20292;-77
2024/01/03 07:25:30;;;;;;;28.67;4.53;;;;;;;;;;5111172;28;20730;-77
2024/01/03 07:27:58;;;;;;;23.57;4.07;;;;;;;;;;5111685;28;20204;-78
2024/01/03 07:30:26;;;;;;;20.87;4.10;;;;;;;;;;5111020;28;20280;-78
2024/01/03 07:32:56;;;;;;;31.70;4.30;;;;;;;;;;5111393;28;20223;-77
2024/01/03 07:35:23;;;;;;;28.13;4.30;;;;;;;;;;5111211;28;20217;-78
2024/01/03 07:37:50;;;;;;;29.10;4.73;;;;;;;;;;5111088;28;20835;-78
2024/01/03 07:40:18;;;;;;;33.17;6.07;;;;;;;;;;5111198;28;20284;-77
2024/01/03 07:42:45;;;;;;;27.70;4.67;;;;;;;;;;5111405;28;20280;-78
2024/01/03 07:45:12;;;;;;;32.03;4.70;;;;;;;;;;5110866;28;20190;-77
2024/01/03 07:47:39;;;;;;;31.70;4.83;;;;;;;;;;5111495;28;20269;-78
2024/01/03 07:50:09;;;;;;;30.33;4.97;;;;;;;;;;5110837;28;20294;-78
2024/01/03 07:52:36;;;;;;;28.53;5.40;;;;;;;;;;5111399;28;20572;-78
2024/01/03 07:55:04;;;;;;;35.03;5.47;;;;;;;;;;5111226;28;20225;-78
2024/01/03 07:57:31;;;;;;;34.03;4.60;;;;;;;;;;5111442;28;20281;-76
2024/01/03 07:59:58;;;;;;;29.63;5.17;;;;;;;;;;5113230;28;20317;-77
2024/01/03 08:02:25;;;;;;;27.27;5.87;;;;;;;;;;5115211;28;20226;-77
2024/01/03 08:04:53;;;;;;;32.77;5.33;;;;;;;;;;5114350;28;20274;-77
2024/01/03 08:07:21;;;;;;;25.90;5.07;;;;;;;;;;5115561;28;20228;-78
2024/01/03 08:09:50;;;;;;;29.93;5.23;;;;;;;;;;5114626;28;20240;-77
2024/01/03 08:12:18;;;;;;;27.53;4.73;;;;;;;;;;5114560;28;20887;-77
2024/01/03 08:14:45;;;;;;;38.80;5.83;;;;;;;;;;5115452;28;20281;-78
2024/01/03 08:17:12;;;;;;;27.67;5.33;;;;;;;;;;5114859;28;20225;-77
2024/01/03 08:19:40;;;;;;;23.17;4.27;;;;;;;;;;5114501;28;20217;-77
2024/01/03 08:22:07;;;;;;;24.93;5.23;;;;;;;;;;5113669;28;20206;-77
2024/01/03 08:24:36;;;;;;;25.10;4.43;;;;;;;;;;5113436;28;20200;-76
2024/01/03 08:27:03;;;;;;;20.73;3.90;;;;;;;;;;5105863;28;20202;-77
2024/01/03 08:29:30;;;;;;;24.73;4.07;;;;;;;;;;5094573;28;20456;-77
2024/01/03 08:31:57;;;;;;;29.77;5.00;;;;;;;;;;5109999;28;20249;-77
2024/01/03 08:34:25;;;;;;;24.37;4.33;;;;;;;;;;5114185;28;20738;-76
2024/01/03 08:36:52;;;;;;;22.43;4.63;;;;;;;;;;5111051;28;20203;-77
2024/01/03 08:39:20;;;;;;;27.30;4.30;;;;;;;;;;5094156;28;20203;-76
2024/01/03 08:41:53;;;;;;;22.03;4.67;;;;;;;;;;5093871;28;20194;-77
2024/01/03 08:44:20;;;;;;;25.57;4.30;;;;;;;;;;5093661;28;20255;-77
2024/01/03 08:46:48;;;;;;;22.50;4.17;;;;;;;;;;5093843;28;20290;-77
2024/01/03 08:49:15;;;;;;;22.03;4.37;;;;;;;;;;5105631;28;20241;-76
2024/01/03 08:51:45;;;;;;;25.07;3.80;;;;;;;;;;5100407;27;20695;-77
2024/01/03 08:54:12;;;;;;;22.80;4.30;;;;;;;;;;5111159;28;20207;-77
2024/01/03 08:56:40;;;;;;;18.90;4.27;;;;;;;;;;5113490;27;20289;-77
2024/01/03 08:59:09;;;;;;;20.87;4.50;;;;;;;;;;5113458;28;20241;-77
2024/01/03 09:01:36;;;;;;;21.53;4.37;;;;;;;;;;5113622;27;20201;-77
2024/01/03 09:04:03;;;;;;;22.53;4.40;;;;;;;;;;5110525;27;20201;-78
2024/01/03 09:06:35;;;;;;;25.37;5.37;;;;;;;;;;5109395;27;20197;-79
2024/01/03 09:09:02;;;;;;;22.00;4.93;;;;;;;;;;5112918;28;20197;-78
2024/01/03 09:11:29;;;;;;;30.83;5.87;;;;;;;;;;5112741;28;20253;-78
2024/01/03 09:13:57;;;;;;;30.50;5.30;;;;;;;;;;5113409;28;20263;-78
2024/01/03 09:16:26;;;;;;;26.33;4.77;;;;;;;;;;5113361;28;20679;-78
2024/01/03 09:18:54;;;;;;;23.83;4.70;;;;;;;;;;5114028;28;20205;-78
2024/01/03 09:21:21;;;;;;;26.37;5.10;;;;;;;;;;5113499;28;20719;-77
2024/01/03 09:23:48;;;;;;;24.50;5.90;;;;;;;;;;5113981;28;20292;-78
2024/01/03 09:26:17;;;;;;;26.30;5.47;;;;;;;;;;5113687;28;20225;-78
2024/01/03 09:28:44;;;;;;;24.03;5.40;;;;;;;;;;5113939;28;20658;-78
2024/01/03 09:31:11;;;;;;;25.90;5.53;;;;;;;;;;5113595;28;20220;-78
2024/01/03 09:33:40;;;;;;;25.90;4.20;;;;;;;;;;5113705;28;20254;-78
2024/01/03 09:36:07;;;;;;;26.13;5.10;;;;;;;;;;5113720;28;20630;-77
2024/01/03 09:38:34;;;;;;;28.73;4.60;;;;;;;;;;5113468;28;20248;-78
2024/01/03 09:41:02;;;;;;;19.57;4.47;;;;;;;;;;5113387;28;20794;-78
2024/01/03 09:43:31;;;;;;;25.27;4.30;;;;;;;;;;5113714;28;20737;-79
2024/01/03 09:45:58;;;;;;;32.47;5.70;;;;;;;;;;5112932;28;20666;-78
2024/01/03 09:48:25;;;;;;;25.37;4.43;;;;;;;;;;5113187;28;20635;-78
2024/01/03 09:50:55;;;;;;;26.50;5.13;;;;;;;;;;5113160;28;20253;-78
2024/01/03 09:53:23;;;;;;;31.90;5.47;;;;;;;;;;5113999;28;20198;-78
2024/01/03 09:55:50;;;;;;;32.07;5.63;;;;;;;;;;5112971;28;20304;-78
2024/01/03 09:58:19;;;;;;;24.93;4.50;;;;;;;;;;5113266;28;20277;-78
2024/01/03 10:00:46;;;;;;;26.13;4.60;;;;;;;;;;5113104;28;20261;-79
2024/01/03 10:03:14;;;;;;;28.03;5.00;;;;;;;;;;5113248;28;20221;-78
2024/01/03 10:05:41;;;;;;;29.20;5.47;;;;;;;;;;5113027;28;20281;-78
2024/01/03 10:08:17;;;;;;;24.80;4.17;;;;;;;;;;5113084;28;20280;-78
2024/01/03 10:10:45;;;;;;;27.53;4.50;;;;;;;;;;5112877;28;20193;-78
2024/01/03 10:13:19;;;;;;;21.40;4.00;;;;;;;;;;5112620;28;20713;-80
2024/01/03 10:15:47;;;;;;;25.13;3.83;;;;;;;;;;5112351;28;20284;-79
2024/01/03 10:18:16;;;;;;;22.63;4.30;;;;;;;;;;5112572;28;20718;-79
2024/01/03 10:20:43;;;;;;;14.63;2.63;;;;;;;;;;5113282;28;20221;-78
2024/01/03 10:23:11;;;;;;;14.80;3.00;;;;;;;;;;5111795;28;20258;-79
2024/01/03 10:25:40;;;;;;;14.57;2.80;;;;;;;;;;5112414;28;20197;-78
2024/01/03 10:28:08;;;;;;;11.07;2.57;;;;;;;;;;5112645;28;20194;-78
2024/01/03 10:30:35;;;;;;;9.87;2.30;;;;;;;;;;5112549;28;20220;-78
2024/01/03 10:33:04;;;;;;;9.53;1.93;;;;;;;;;;5112460;28;20701;-79
2024/01/03 10:35:31;;;;;;;7.23;1.90;;;;;;;;;;5112564;28;20197;-78
2024/01/03 10:38:00;;;;;;;9.00;1.70;;;;;;;;;;5112536;28;20250;-78
2024/01/03 10:40:28;;;;;;;9.63;2.00;;;;;;;;;;5112265;28;20255;-78
2024/01/03 10:42:57;;;;;;;8.10;1.80;;;;;;;;;;5112027;28;20239;-78
2024/01/03 10:45:24;;;;;;;6.33;1.40;;;;;;;;;;5112403;28;20198;-78
2024/01/03 10:47:52;;;;;;;8.03;1.60;;;;;;;;;;5112551;28;20208;-78
2024/01/03 10:50:20;;;;;;;6.90;1.33;;;;;;;;;;5112581;28;20220;-78
2024/01/03 10:52:48;;;;;;;5.77;1.40;;;;;;;;;;5112310;28;20321;-78
2024/01/03 10:55:19;;;;;;;7.10;1.70;;;;;;;;;;5112023;28;20201;-78
2024/01/03 10:57:58;;;;;;;11.10;2.10;;;;;;;;;;5111691;28;20215;-78
2024/01/03 11:00:37;;;;;;;7.30;1.50;;;;;;;;;;5111979;28;20709;-78
2024/01/03 11:03:11;;;;;;;9.80;1.80;;;;;;;;;;5111752;28;20194;-78
2024/01/03 11:05:43;;;;;;;8.93;1.73;;;;;;;;;;5112234;28;20738;-77
2024/01/03 11:08:13;;;;;;;11.47;2.47;;;;;;;;;;5111992;28;20289;-78
2024/01/03 11:10:51;;;;;;;13.03;2.03;;;;;;;;;;5112071;28;20190;-79
2024/01/03 11:13:29;;;;;;;11.57;1.97;;;;;;;;;;5111600;28;20221;-78
2024/01/03 11:15:58;;;;;;;7.47;1.73;;;;;;;;;;5111790;28;20196;-78
2024/01/03 11:18:43;;;;;;;9.27;2.17;;;;;;;;;;5112025;28;20301;-78
2024/01/03 11:21:30;;;;;;;10.13;2.40;;;;;;;;;;5111825;28;20284;-78
2024/01/03 11:23:58;;;;;;;11.77;2.40;;;;;;;;;;5112131;28;20573;-77
2024/01/03 11:26:39;;;;;;;12.00;2.50;;;;;;;;;;5111696;28;20194;-78
2024/01/03 11:29:06;;;;;;;12.13;2.43;;;;;;;;;;5111810;28;20213;-77
2024/01/03 11:31:48;;;;;;;14.13;2.90;;;;;;;;;;5111732;28;20593;-78
2024/01/03 11:34:30;;;;;;;9.30;2.33;;;;;;;;;;5114057;28;20642;-78
2024/01/03 11:36:58;;;;;;;14.03;3.07;;;;;;;;;;5115483;28;20221;-78
2024/01/03 11:39:35;;;;;;;13.33;2.80;;;;;;;;;;5115525;28;20228;-80
2024/01/03 11:42:03;;;;;;;10.60;1.90;;;;;;;;;;5115328;28;20270;-78
2024/01/03 11:44:30;;;;;;;13.40;2.57;;;;;;;;;;5115585;28;20725;-78
2024/01/03 11:47:01;;;;;;;10.90;2.17;;;;;;;;;;5115548;28;20197;-78
2024/01/03 11:49:28;;;;;;;12.53;2.80;;;;;;;;;;5115756;28;20193;-79
2024/01/03 11:51:57;;;;;;;7.80;2.17;;;;;;;;;;5115688;28;20228;-78
2024/01/03 11:54:26;;;;;;;10.70;2.47;;;;;;;;;;5115728;28;20194;-77
2024/01/03 11:56:56;;;;;;;10.77;2.00;;;;;;;;;;5115311;28;20292;-78
2024/01/03 11:59:23;;;;;;;11.10;2.17;;;;;;;;;;5115309;28;20270;-77
2024/01/03 12:01:56;;;;;;;11.30;2.50;;;;;;;;;;5115506;28;20286;-77
2024/01/03 12:04:23;;;;;;;11.20;2.27;;;;;;;;;;5115457;28;20202;-77
2024/01/03 12:06:51;;;;;;;16.33;2.93;;;;;;;;;;5115473;28;20288;-77
2024/01/03 12:09:19;;;;;;;12.37;2.30;;;;;;;;;;5115160;28;20863;-77
2024/01/03 12:11:47;;;;;;;16.47;2.70;;;;;;;;;;5114571;28;20208;-77
2024/01/03 12:14:17;;;;;;;17.67;3.23;;;;;;;;;;5115397;28;20638;-77
2024/01/03 12:16:47;;;;;;;10.60;2.03;;;;;;;;;;5115198;28;20380;-77
2024/01/03 12:19:23;;;;;;;13.93;2.47;;;;;;;;;;5115131;28;20731;-76
2024/01/03 12:21:57;;;;;;;11.40;2.57;;;;;;;;;;5115129;28;20197;-78
2024/01/03 12:24:24;;;;;;;8.67;1.90;;;;;;;;;;5115377;28;20201;-78
2024/01/03 12:26:52;;;;;;;12.63;2.30;;;;;;;;;;5114975;28;20280;-77
2024/01/03 12:29:20;;;;;;;10.13;1.90;;;;;;;;;;5114615;28;20197;-77
2024/01/03 12:31:47;;;;;;;12.37;2.33;;;;;;;;;;5114582;28;20197;-76
2024/01/03 12:34:19;;;;;;;9.77;1.83;;;;;;;;;;5114483;28;20194;-77
2024/01/03 12:36:46;;;;;;;8.90;1.90;;;;;;;;;;5114343;28;20205;-77
2024/01/03 12:39:13;;;;;;;7.83;1.80;;;;;;;;;;5114416;28;20219;-77
2024/01/03 12:41:41;;;;;;;10.30;1.77;;;;;;;;;;5114777;28;20194;-77
2024/01/03 12:44:09;;;;;;;8.07;1.70;;;;;;;;;;5114021;28;20232;-77
2024/01/03 12:46:36;;;;;;;7.77;1.47;;;;;;;;;;5113878;28;20276;-77
2024/01/03 12:49:03;;;;;;;8.33;1.47;;;;;;;;;;5114732;28;20280;-77
2024/01/03 12:51:31;;;;;;;6.20;1.07;;;;;;;;;;5114479;28;20662;-77
2024/01/03 12:53:58;;;;;;;6.63;1.17;;;;;;;;;;5114199;28;20267;-77
2024/01/03 12:56:25;;;;;;;7.07;1.10;;;;;;;;;;5114431;28;20204;-77
2024/01/03 12:58:52;;;;;;;3.43;0.83;;;;;;;;;;5114020;28;20270;-78
2024/01/03 13:01:21;;;;;;;4.43;1.10;;;;;;;;;;5114600;28;20761;-77
2024/01/03 13:03:48;;;;;;;6.33;1.13;;;;;;;;;;5114255;28;20229;-77
2024/01/03 13:06:15;;;;;;;4.53;1.30;;;;;;;;;;5114169;28;20217;-78
2024/01/03 13:08:42;;;;;;;3.97;0.97;;;;;;;;;;5113725;28;20684;-77
2024/01/03 13:11:09;;;;;;;4.63;1.17;;;;;;;;;;5113926;28;20757;-77
2024/01/03 13:13:37;;;;;;;5.80;1.30;;;;;;;;;;5113971;28;20278;-78
2024/01/03 13:16:04;;;;;;;3.13;0.90;;;;;;;;;;5113849;28;20289;-78
2024/01/03 13:18:33;;;;;;;4.67;0.90;;;;;;;;;;5114097;28;20202;-78
2024/01/03 13:21:00;;;;;;;6.80;0.73;;;;;;;;;;5113864;28;20228;-77
2024/01/03 13:23:27;;;;;;;6.07;0.90;;;;;;;;;;5113879;28;20193;-77
2024/01/03 13:25:54;;;;;;;4.10;1.00;;;;;;;;;;5113840;28;20228;-77
2024/01/03 13:28:22;;;;;;;7.27;1.43;;;;;;;;;;5113615;28;20558;-77
2024/01/03 13:30:50;;;;;;;5.53;1.37;;;;;;;;;;5114103;28;20201;-77
2024/01/03 13:33:17;;;;;;;7.90;1.20;;;;;;;;;;5113758;28;20680;-77
2024/01/03 13:35:45;;;;;;;8.20;1.27;;;;;;;;;;5113582;28;20658;-77
2024/01/03 13:38:12;;;;;;;5.97;1.17;;;;;;;;;;5113305;28;20749;-76
2024/01/03 13:40:41;;;;;;;4.40;1.37;;;;;;;;;;5113786;28;20647;-77
2024/01/03 13:43:08;;;;;;;6.97;1.40;;;;;;;;;;5113191;28;20194;-76
2024/01/03 13:45:35;;;;;;;6.77;1.33;;;;;;;;;;5113389;28;20198;-77
2024/01/03 13:48:02;;;;;;;9.37;1.63;;;;;;;;;;5113669;28;20740;-77
2024/01/03 13:50:30;;;;;;;4.47;1.20;;;;;;;;;;5113280;28;20713;-77
2024/01/03 13:52:58;;;;;;;8.27;1.90;;;;;;;;;;5112953;28;20218;-77
2024/01/03 13:55:25;;;;;;;12.00;1.40;;;;;;;;;;5113582;28;20194;-77
2024/01/03 13:57:52;;;;;;;10.23;1.73;;;;;;;;;;5113362;28;20198;-77
2024/01/03 14:00:20;;;;;;;11.77;2.10;;;;;;;;;;5113027;28;20229;-77
2024/01/03 14:02:49;;;;;;;9.73;1.80;;;;;;;;;;5113468;28;20229;-76
2024/01/03 14:05:16;;;;;;;9.77;1.90;;;;;;;;;;5113144;28;20582;-78
2024/01/03 14:07:43;;;;;;;9.33;1.90;;;;;;;;;;5112804;28;20274;-77
2024/01/03 14:10:12;;;;;;;9.27;1.87;;;;;;;;;;5113129;28;20247;-77
2024/01/03 14:12:39;;;;;;;8.73;2.03;;;;;;;;;;5113258;28;20589;-78
2024/01/03 14:15:07;;;;;;;9.30;2.00;;;;;;;;;;5112461;28;20189;-77
2024/01/03 14:17:35;;;;;;;6.47;1.90;;;;;;;;;;5112978;28;20197;-78
2024/01/03 14:20:05;;;;;;;12.37;2.27;;;;;;;;;;5113132;28;20284;-76
2024/01/03 14:22:33;;;;;;;10.40;2.07;;;;;;;;;;5113002;28;20194;-77
2024/01/03 14:25:00;;;;;;;12.77;2.13;;;;;;;;;;5112800;28;20204;-77
2024/01/03 14:27:29;;;;;;;12.80;2.60;;;;;;;;;;5112668;28;20281;-77
2024/01/03 14:29:56;;;;;;;11.67;2.00;;;;;;;;;;5112907;28;20198;-77
2024/01/03 14:32:24;;;;;;;15.07;2.80;;;;;;;;;;5112217;28;20233;-77
2024/01/03 14:34:52;;;;;;;12.57;2.13;;;;;;;;;;5112140;28;20818;-77
2024/01/03 14:37:21;;;;;;;13.33;2.60;;;;;;;;;;5112287;28;20260;-77